Saint Johnsbury, Vermont
Current Conditions -  °F | °C
As of 12:15 PM on Thursday 18 Dec 2014 (Local Time) from KCDA Reporting Station
Drizzle Drizzle  
Wind Chill: 26°   Ceiling: 1400
Heat Index: 32°   Visibility: 5mi
Dew Point: 28°   Wind: 6mph
Humidity: 86%   Direction: 260°W
Pressure: 29.75"   Gusts: NA
Location:  44.42°N, 72.01°W
Report Text: KCDA 181715Z AUTO 26005KT 5SM -DZ OVC014 00/M02 A2975 RMK AO2 T00001021
Loading
Personal Weather Stations






























Interactive Weather Map New forecast layout! Learn more

10-Day Weather Forecast

Advertisements
Track Severe Weather on mobile